Main page
METAR-TAF:

METAR-TAF

Airports :

Daejeon, South Korea

latitude: 36-18N, longitude: 127-24E, elevation: 77 m

Current weather observation

The report was made 1 hour and 26 minutes ago, at 19:12 UTC
Wind 1 kt from the South
Temperature 23°C
Humidity 100%
Pressure 1011 hPa
Visibility: 8000 m
Few clouds at a height of 500 ft
Overcast at a height of 2000 ft
mist

METAR: RKTF 161912Z 19001KT 8000 BR FEW005 OVC020 23/23 A2984 RMK CIG020

Time: 05:38 (20:38 UTC)


TAF: missing

Weather observations and forecasts of more than 4000 airports (METAR and TAF reports).

The available stations are represented by yellow and red dots on the map.

Hover mouse over dot to see the name of the station.

Then click to see weather observations and forecasts.

To change the map : click on the green buttons with a black cross to zoom in, on the green button with a dash to zoom out, or on the green arrows for adjacent maps.


METAR-TAF: